createdAt,value
2017-12-08T00:00:16.888Z,1.90
2017-12-08T00:02:44.389Z,1.97
2017-12-08T00:05:11.927Z,2.27
2017-12-08T00:07:39.426Z,2.00
2017-12-08T00:10:07.716Z,2.10
2017-12-08T00:12:35.215Z,2.00
2017-12-08T00:15:02.734Z,1.80
2017-12-08T00:17:30.230Z,1.80
2017-12-08T00:19:57.780Z,1.63
2017-12-08T00:22:25.279Z,1.80
2017-12-08T00:24:52.783Z,1.60
2017-12-08T00:27:20.299Z,1.40
2017-12-08T00:29:47.794Z,1.63
2017-12-08T00:32:15.323Z,1.57
2017-12-08T00:34:43.587Z,1.30
2017-12-08T00:37:11.108Z,1.60
2017-12-08T00:39:38.606Z,1.63
2017-12-08T00:42:06.123Z,1.30
2017-12-08T00:44:33.614Z,1.37
2017-12-08T00:47:01.126Z,1.83
2017-12-08T00:49:28.622Z,1.50
2017-12-08T00:51:56.131Z,1.20
2017-12-08T00:54:23.626Z,1.47
2017-12-08T00:56:51.138Z,0.93
2017-12-08T00:59:18.638Z,1.50
2017-12-08T01:01:46.155Z,1.47
2017-12-08T01:04:13.656Z,1.50
2017-12-08T01:06:41.169Z,1.50
2017-12-08T01:09:08.670Z,1.80
2017-12-08T01:11:36.182Z,2.50
2017-12-08T01:14:03.684Z,2.23
2017-12-08T01:16:31.227Z,2.40
2017-12-08T01:18:58.771Z,2.87
2017-12-08T01:21:26.330Z,1.80
2017-12-08T01:23:53.832Z,2.17
2017-12-08T01:26:21.331Z,1.73
2017-12-08T01:28:49.610Z,2.20
2017-12-08T01:31:17.108Z,1.80
2017-12-08T01:33:44.627Z,2.20
2017-12-08T01:36:12.118Z,1.77
2017-12-08T01:38:40.398Z,2.43
2017-12-08T01:41:07.900Z,2.00
2017-12-08T01:43:36.183Z,1.90
2017-12-08T01:46:04.461Z,1.10
2017-12-08T01:48:32.740Z,1.60
2017-12-08T01:51:01.004Z,1.30
2017-12-08T01:53:29.287Z,1.40
2017-12-08T01:55:57.546Z,1.33
2017-12-08T01:58:25.116Z,1.53
2017-12-08T02:00:53.378Z,1.30
2017-12-08T02:03:20.882Z,1.77
2017-12-08T02:05:48.383Z,1.30
2017-12-08T02:08:15.902Z,1.60
2017-12-08T02:10:43.404Z,1.90
2017-12-08T02:13:10.911Z,1.40
2017-12-08T02:15:38.411Z,1.40
2017-12-08T02:18:05.947Z,1.60
2017-12-08T02:20:33.452Z,2.00
2017-12-08T02:23:01.730Z,2.00
2017-12-08T02:25:30.000Z,1.70
2017-12-08T02:27:57.508Z,1.60
2017-12-08T02:30:25.025Z,2.97
2017-12-08T02:32:53.284Z,2.70
2017-12-08T02:35:20.798Z,2.70
2017-12-08T02:37:48.295Z,2.27
2017-12-08T02:40:15.804Z,2.33
2017-12-08T02:42:43.312Z,1.80
2017-12-08T02:45:10.869Z,2.13
2017-12-08T02:47:38.374Z,2.30
2017-12-08T02:50:05.887Z,2.13
2017-12-08T02:52:33.403Z,1.43
2017-12-08T02:55:00.915Z,2.00
2017-12-08T02:57:29.187Z,1.70
2017-12-08T02:59:56.707Z,1.80
2017-12-08T03:02:24.207Z,1.67
2017-12-08T03:04:52.503Z,1.70
2017-12-08T03:07:20.004Z,1.33
2017-12-08T03:09:47.517Z,1.83
2017-12-08T03:12:15.776Z,1.60
2017-12-08T03:14:44.058Z,1.67
2017-12-08T03:17:11.579Z,2.40
2017-12-08T03:19:39.103Z,1.80
2017-12-08T03:22:06.611Z,2.27
2017-12-08T03:24:34.131Z,2.50
2017-12-08T03:27:01.636Z,2.03
2017-12-08T03:29:29.135Z,2.10
2017-12-08T03:31:56.644Z,1.50
2017-12-08T03:34:24.143Z,2.07
2017-12-08T03:36:51.654Z,2.40
2017-12-08T03:39:19.150Z,1.97
2017-12-08T03:41:47.426Z,1.80
2017-12-08T03:44:14.931Z,1.80
2017-12-08T03:46:42.446Z,2.03
2017-12-08T03:49:09.948Z,2.60
2017-12-08T03:51:37.458Z,1.77
2017-12-08T03:54:04.964Z,2.60
2017-12-08T03:56:32.495Z,2.00
2017-12-08T03:59:00.000Z,1.67
2017-12-08T04:01:27.515Z,2.00
2017-12-08T04:03:55.015Z,2.23
2017-12-08T04:06:22.528Z,2.10
2017-12-08T04:08:50.034Z,2.33
2017-12-08T04:11:17.551Z,2.47
2017-12-08T04:13:45.055Z,1.70
2017-12-08T04:16:12.567Z,2.20
2017-12-08T04:18:40.059Z,2.73
2017-12-08T04:21:08.358Z,2.20
2017-12-08T04:23:36.625Z,2.13
2017-12-08T04:26:04.130Z,1.50
2017-12-08T04:28:31.623Z,1.50
2017-12-08T04:30:59.143Z,2.20
2017-12-08T04:33:26.676Z,1.80
2017-12-08T04:35:54.934Z,2.03
2017-12-08T04:38:23.219Z,2.37
2017-12-08T04:40:51.834Z,2.20
2017-12-08T04:43:19.355Z,2.40
2017-12-08T04:45:47.623Z,2.43
2017-12-08T04:48:15.134Z,2.50
2017-12-08T04:50:42.631Z,2.70
2017-12-08T04:53:10.147Z,2.50
2017-12-08T04:55:37.646Z,2.70
2017-12-08T04:58:05.159Z,2.77
2017-12-08T05:00:32.650Z,2.63
2017-12-08T05:03:00.423Z,2.90
2017-12-08T05:05:27.922Z,3.37
2017-12-08T05:07:55.435Z,3.73
2017-12-08T05:10:22.932Z,3.70
2017-12-08T05:12:51.218Z,3.53
2017-12-08T05:15:18.715Z,3.70
2017-12-08T05:17:46.226Z,4.57
2017-12-08T05:20:13.720Z,3.93
2017-12-08T05:22:41.226Z,4.07
2017-12-08T05:25:09.499Z,4.10
2017-12-08T05:27:37.776Z,4.13
2017-12-08T05:30:06.451Z,4.10
2017-12-08T05:32:33.976Z,4.70
2017-12-08T05:35:01.481Z,4.20
2017-12-08T05:37:29.738Z,4.47
2017-12-08T05:39:57.247Z,4.50
2017-12-08T05:42:24.743Z,3.17
2017-12-08T05:44:52.263Z,4.40
2017-12-08T05:47:19.755Z,4.23
2017-12-08T05:49:47.274Z,4.90
2017-12-08T05:52:14.778Z,4.00
2017-12-08T05:54:42.282Z,3.97
2017-12-08T05:57:09.782Z,3.53
2017-12-08T05:59:37.291Z,4.00
2017-12-08T06:02:04.786Z,3.80
2017-12-08T06:04:32.298Z,3.93
2017-12-08T06:07:00.566Z,3.57
2017-12-08T06:09:28.843Z,3.97
2017-12-08T06:11:57.106Z,4.07
2017-12-08T06:14:24.624Z,4.05
2017-12-08T06:16:52.114Z,4.37
2017-12-08T06:19:19.623Z,4.17
2017-12-08T06:21:47.118Z,4.40
2017-12-08T06:24:14.626Z,3.43
2017-12-08T06:26:42.128Z,4.10
2017-12-08T06:29:09.639Z,4.10
2017-12-08T06:31:37.135Z,4.27
2017-12-08T06:34:04.652Z,4.43
2017-12-08T06:36:32.150Z,3.70
2017-12-08T06:38:59.811Z,4.37
2017-12-08T06:41:27.476Z,4.50
2017-12-08T06:43:55.079Z,5.40
2017-12-08T06:46:25.382Z,5.00
2017-12-08T06:48:52.882Z,4.27
2017-12-08T06:51:20.390Z,4.63
2017-12-08T06:53:47.883Z,5.00
2017-12-08T06:56:16.154Z,4.43
2017-12-08T06:58:44.428Z,4.17
2017-12-08T07:01:12.712Z,2.90
2017-12-08T07:03:40.985Z,3.03
2017-12-08T07:06:09.265Z,2.23
2017-12-08T07:08:37.527Z,2.10
2017-12-08T07:11:05.821Z,2.10
2017-12-08T07:13:33.326Z,1.77
2017-12-08T07:16:00.843Z,2.13
2017-12-08T07:18:28.340Z,2.07
2017-12-08T07:20:55.850Z,1.27
2017-12-08T07:23:24.115Z,1.50
2017-12-08T07:25:52.391Z,1.53
2017-12-08T07:28:20.655Z,1.27
2017-12-08T07:30:48.175Z,1.40
2017-12-08T07:33:15.671Z,1.73
2017-12-08T07:35:43.183Z,1.80
2017-12-08T07:38:10.683Z,3.60
2017-12-08T07:40:38.215Z,9.33
2017-12-08T07:43:05.719Z,2.60
2017-12-08T07:45:33.984Z,6.40
2017-12-08T07:48:01.508Z,8.60
2017-12-08T07:50:29.002Z,10.33
2017-12-08T07:52:57.292Z,17.03
2017-12-08T07:55:25.842Z,12.73
2017-12-08T07:57:53.367Z,12.40
2017-12-08T08:00:20.876Z,18.87
2017-12-08T08:02:49.163Z,44.30
2017-12-08T08:05:17.435Z,17.03
2017-12-08T08:07:45.723Z,12.00
2017-12-08T08:10:13.224Z,10.33
2017-12-08T08:12:40.746Z,15.23
2017-12-08T08:15:08.258Z,14.77
2017-12-08T08:17:35.773Z,7.73
2017-12-08T08:20:03.280Z,10.33
2017-12-08T08:22:30.804Z,8.47
2017-12-08T08:24:58.301Z,6.50
2017-12-08T08:27:25.815Z,6.57
2017-12-08T08:29:53.306Z,4.57
2017-12-08T08:32:20.824Z,6.03
2017-12-08T08:34:48.335Z,4.77
2017-12-08T08:37:15.861Z,4.00
2017-12-08T08:39:43.358Z,5.40
2017-12-08T08:42:11.644Z,4.77
2017-12-08T08:44:39.898Z,2.93
2017-12-08T08:47:07.386Z,2.57
2017-12-08T08:49:34.907Z,2.50
2017-12-08T08:52:02.408Z,2.93
2017-12-08T08:54:29.919Z,3.20
2017-12-08T08:56:57.419Z,1.50
2017-12-08T08:59:24.935Z,2.33
2017-12-08T09:01:52.440Z,1.90
2017-12-08T09:04:19.959Z,1.00
2017-12-08T09:06:47.467Z,2.47
2017-12-08T09:09:14.978Z,3.63
2017-12-08T09:11:42.471Z,4.27
2017-12-08T09:14:10.003Z,6.30
2017-12-08T09:16:38.263Z,6.60
2017-12-08T09:19:05.774Z,6.70
2017-12-08T09:21:33.270Z,4.90
2017-12-08T09:24:00.788Z,7.23
2017-12-08T09:26:28.291Z,8.40
2017-12-08T09:28:55.803Z,6.50
2017-12-08T09:31:23.306Z,6.20
2017-12-08T09:33:50.819Z,9.00
2017-12-08T09:36:18.325Z,9.60
2017-12-08T09:38:45.835Z,6.33
2017-12-08T09:41:14.100Z,10.33
2017-12-08T09:43:41.619Z,6.33
2017-12-08T09:46:09.120Z,6.93
2017-12-08T09:48:36.663Z,7.70
2017-12-08T09:51:04.931Z,5.17
2017-12-08T09:53:33.195Z,2.83
2017-12-08T09:56:00.711Z,2.53
2017-12-08T09:58:28.207Z,1.20
2017-12-08T10:00:55.723Z,2.37
2017-12-08T10:03:23.220Z,1.70
2017-12-08T10:05:50.731Z,2.40
2017-12-08T10:08:18.248Z,2.43
2017-12-08T10:10:46.534Z,2.20
2017-12-08T10:13:14.799Z,2.33
2017-12-08T10:15:42.315Z,2.37
2017-12-08T10:18:09.812Z,2.50
2017-12-08T10:20:37.348Z,2.87
2017-12-08T10:23:05.624Z,3.73
2017-12-08T10:25:33.136Z,2.43
2017-12-08T10:28:00.695Z,2.83
2017-12-08T10:30:28.171Z,2.37
2017-12-08T10:32:55.672Z,3.07
2017-12-08T10:35:23.184Z,3.40
2017-12-08T10:37:50.682Z,2.93
2017-12-08T10:40:18.195Z,3.40
2017-12-08T10:42:45.705Z,3.10
2017-12-08T10:45:13.236Z,3.73
2017-12-08T10:47:40.735Z,3.20
2017-12-08T10:50:09.049Z,3.50
2017-12-08T10:52:36.555Z,3.30
2017-12-08T10:55:04.050Z,2.80
2017-12-08T10:57:31.568Z,3.27
2017-12-08T10:59:59.072Z,3.70
2017-12-08T11:02:26.586Z,3.80
2017-12-08T11:04:54.079Z,3.13
2017-12-08T11:07:21.600Z,3.47
2017-12-08T11:09:49.103Z,3.73
2017-12-08T11:12:16.632Z,4.83
2017-12-08T11:14:44.904Z,3.77
2017-12-08T11:17:13.190Z,5.23
2017-12-08T11:19:41.447Z,4.67
2017-12-08T11:22:08.958Z,3.53
2017-12-08T11:24:36.472Z,3.10
2017-12-08T11:27:04.761Z,4.10
2017-12-08T11:29:33.041Z,4.20
2017-12-08T11:32:01.311Z,3.23
2017-12-08T11:34:29.571Z,3.57
2017-12-08T11:36:57.088Z,3.70
2017-12-08T11:39:24.590Z,4.00
2017-12-08T11:41:52.878Z,3.20
2017-12-08T11:44:21.138Z,4.23
2017-12-08T11:46:49.424Z,3.67
2017-12-08T11:49:17.686Z,6.77
2017-12-08T11:51:46.015Z,9.63
2017-12-08T11:54:13.524Z,11.87
2017-12-08T11:56:41.035Z,11.93
2017-12-08T11:59:08.550Z,5.50
2017-12-08T12:01:36.823Z,7.07
2017-12-08T12:04:05.106Z,9.80
2017-12-08T12:06:33.376Z,6.23
2017-12-08T12:09:01.662Z,10.60
2017-12-08T12:11:29.931Z,10.40
2017-12-08T12:13:58.216Z,8.30
2017-12-08T12:16:26.484Z,6.00
2017-12-08T12:18:54.772Z,4.10
2017-12-08T12:21:22.279Z,10.00
2017-12-08T12:23:49.799Z,4.10
2017-12-08T12:26:17.303Z,3.43
2017-12-08T12:28:44.815Z,3.60
2017-12-08T12:31:12.312Z,3.20
2017-12-08T12:33:39.835Z,3.83
2017-12-08T12:36:07.366Z,3.60
2017-12-08T12:38:35.650Z,3.57
2017-12-08T12:41:03.914Z,4.33
2017-12-08T12:43:32.190Z,2.97
2017-12-08T12:46:00.451Z,3.60
2017-12-08T12:48:27.963Z,4.13
2017-12-08T12:50:55.467Z,3.53
2017-12-08T12:53:22.983Z,4.60
2017-12-08T12:55:50.491Z,4.93
2017-12-08T12:58:18.788Z,4.53
2017-12-08T13:00:47.060Z,6.17
2017-12-08T13:03:15.337Z,3.97
2017-12-08T13:05:43.624Z,5.30
2017-12-08T13:08:11.119Z,4.20
2017-12-08T13:10:38.675Z,5.10
2017-12-08T13:13:06.154Z,6.67
2017-12-08T13:15:33.676Z,5.43
2017-12-08T13:18:01.180Z,5.60
2017-12-08T13:20:28.703Z,6.03
2017-12-08T13:22:56.212Z,5.67
2017-12-08T13:25:24.499Z,5.93
2017-12-08T13:27:52.765Z,5.37
2017-12-08T13:30:21.050Z,5.30
2017-12-08T13:32:48.564Z,4.47
2017-12-08T13:35:16.079Z,5.00
2017-12-08T13:37:43.574Z,5.17
2017-12-08T13:40:11.088Z,5.37
2017-12-08T13:42:38.591Z,4.20
2017-12-08T13:45:06.113Z,4.67
2017-12-08T13:47:33.623Z,5.20
2017-12-08T13:50:01.136Z,5.70
2017-12-08T13:52:28.638Z,8.13
2017-12-08T13:55:08.023Z,6.20
2017-12-08T13:57:35.523Z,5.63
2017-12-08T14:00:03.035Z,4.47
2017-12-08T14:02:30.739Z,4.53
2017-12-08T14:04:58.247Z,5.83
2017-12-08T14:07:25.789Z,7.90
2017-12-08T14:09:54.072Z,8.13
2017-12-08T14:12:22.359Z,7.13
2017-12-08T14:14:49.859Z,10.63
2017-12-08T14:17:17.371Z,8.00
2017-12-08T14:19:45.640Z,7.90
2017-12-08T14:22:13.935Z,6.20
2017-12-08T14:24:41.451Z,8.00
2017-12-08T14:27:08.974Z,5.57
2017-12-08T14:29:36.476Z,5.90
2017-12-08T14:32:03.995Z,8.27
2017-12-08T14:34:31.494Z,10.77
2017-12-08T14:36:59.775Z,6.90
2017-12-08T14:39:28.048Z,4.93
2017-12-08T14:41:56.335Z,4.90
2017-12-08T14:44:24.596Z,4.20
2017-12-08T14:46:52.111Z,4.43
2017-12-08T14:49:19.612Z,4.90
2017-12-08T14:51:47.902Z,5.57
2017-12-08T14:54:16.177Z,5.40
2017-12-08T14:56:44.473Z,8.00
2017-12-08T14:59:11.991Z,12.73
2017-12-08T15:01:39.512Z,14.17
2017-12-08T15:04:07.012Z,8.63
2017-12-08T15:06:34.547Z,6.70
2017-12-08T15:09:02.047Z,4.30
2017-12-08T15:11:30.315Z,5.70
2017-12-08T15:13:58.619Z,4.30
2017-12-08T15:16:26.133Z,4.37
2017-12-08T15:18:53.659Z,4.57
2017-12-08T15:21:21.155Z,3.27
2017-12-08T15:23:48.667Z,3.03
2017-12-08T15:26:16.167Z,4.00
2017-12-08T15:28:43.678Z,3.03
2017-12-08T15:31:11.186Z,4.10
2017-12-08T15:33:38.705Z,3.80
2017-12-08T15:36:06.211Z,3.20
2017-12-08T15:38:34.500Z,7.20
2017-12-08T15:41:02.763Z,4.00
2017-12-08T15:43:31.046Z,4.17
2017-12-08T15:45:59.314Z,5.80
2017-12-08T15:48:27.599Z,2.70
2017-12-08T15:50:55.854Z,3.67
2017-12-08T15:53:23.363Z,2.50
2017-12-08T15:55:50.871Z,3.37
2017-12-08T15:58:18.383Z,3.30
2017-12-08T16:00:45.888Z,5.10
2017-12-08T16:03:13.410Z,2.80
2017-12-08T16:05:40.907Z,2.70
2017-12-08T16:08:08.423Z,2.23
2017-12-08T16:10:35.918Z,1.97
2017-12-08T16:13:03.424Z,16.23
2017-12-08T16:15:30.939Z,2.07
2017-12-08T16:17:58.441Z,1.30
2017-12-08T16:20:25.951Z,1.50
2017-12-08T16:22:53.455Z,1.67
2017-12-08T16:25:20.971Z,1.57
2017-12-08T16:27:48.467Z,1.70
2017-12-08T16:30:15.986Z,1.03
2017-12-08T16:32:43.483Z,1.40
2017-12-08T16:35:10.995Z,2.20
2017-12-08T16:37:38.494Z,1.60
2017-12-08T16:40:06.002Z,1.60
2017-12-08T16:42:33.495Z,2.80
2017-12-08T16:45:01.779Z,2.63
2017-12-08T16:47:29.275Z,4.53
2017-12-08T16:49:56.786Z,2.40
2017-12-08T16:52:25.058Z,3.23
2017-12-08T16:54:53.336Z,2.87
2017-12-08T16:57:21.606Z,18.57
2017-12-08T16:59:49.886Z,9.33
2017-12-08T17:02:18.159Z,43.47
2017-12-08T17:04:46.460Z,5.60
2017-12-08T17:07:13.963Z,3.63
2017-12-08T17:09:41.507Z,13.23
2017-12-08T17:12:09.771Z,5.20
2017-12-08T17:14:37.263Z,2.83
2017-12-08T17:17:04.776Z,3.30
2017-12-08T17:19:32.271Z,3.20
2017-12-08T17:21:59.783Z,5.70
2017-12-08T17:24:27.287Z,8.93
2017-12-08T17:26:54.807Z,8.00
2017-12-08T17:29:22.311Z,4.40
2017-12-08T17:31:49.831Z,5.97
2017-12-08T17:34:17.327Z,7.57
2017-12-08T17:36:44.878Z,11.47
2017-12-08T17:39:12.385Z,7.90
2017-12-08T17:41:39.951Z,6.67
2017-12-08T17:44:07.415Z,6.33
2017-12-08T17:46:34.943Z,5.43
2017-12-08T17:49:03.206Z,4.03
2017-12-08T19:20:18.503Z,3.40
2017-12-08T19:53:23.582Z,2.17
2017-12-08T19:55:51.092Z,2.60
2017-12-08T19:58:18.626Z,2.50
2017-12-08T20:00:46.963Z,3.63
2017-12-08T20:03:15.631Z,1.67
2017-12-08T20:05:43.199Z,1.60
2017-12-08T20:08:10.739Z,2.00
2017-12-08T20:10:39.283Z,1.60
2017-12-08T20:13:08.613Z,1.50
2017-12-08T20:15:37.114Z,1.60
2017-12-08T20:18:10.515Z,1.40
2017-12-08T20:20:38.045Z,1.13
2017-12-08T20:23:07.495Z,1.13
2017-12-08T20:25:35.054Z,1.77
2017-12-08T20:28:02.550Z,1.60
2017-12-08T20:30:32.738Z,1.90
2017-12-08T20:33:00.930Z,1.70
2017-12-08T20:35:29.262Z,2.40
2017-12-08T20:37:56.829Z,5.00
2017-12-08T20:40:24.337Z,2.70
2017-12-08T20:42:52.682Z,1.93
2017-12-08T20:45:20.188Z,2.30
2017-12-08T20:47:47.713Z,2.40
2017-12-08T20:50:15.479Z,1.70
2017-12-08T20:52:45.072Z,1.77
2017-12-08T20:55:12.572Z,1.63
2017-12-08T20:57:40.133Z,1.30
2017-12-08T21:00:07.644Z,2.13
2017-12-08T21:02:35.158Z,1.80
2017-12-08T21:05:02.667Z,1.80
2017-12-08T21:07:31.027Z,3.47
2017-12-08T21:09:58.526Z,3.20
2017-12-08T21:12:28.774Z,3.30
2017-12-08T21:14:56.277Z,2.80
2017-12-08T21:17:23.781Z,3.53
2017-12-08T21:19:51.308Z,4.90
2017-12-08T21:22:19.575Z,2.10
2017-12-08T21:24:47.129Z,2.83
2017-12-08T21:27:14.634Z,1.90
2017-12-08T21:29:42.155Z,2.40
2017-12-08T21:32:10.427Z,1.80
2017-12-08T21:34:37.947Z,2.60
2017-12-08T21:37:05.455Z,2.07
2017-12-08T21:39:33.750Z,1.50
2017-12-08T21:42:01.256Z,1.93
2017-12-08T21:44:28.787Z,2.00
2017-12-08T21:46:56.290Z,2.10
2017-12-08T21:49:23.814Z,6.23
2017-12-08T21:51:51.329Z,10.97
2017-12-08T21:54:19.618Z,19.03
2017-12-08T21:56:47.127Z,20.83
2017-12-08T21:59:14.648Z,28.30
2017-12-08T22:01:42.160Z,13.30
2017-12-08T22:04:09.682Z,10.30
2017-12-08T22:06:37.327Z,3.43
2017-12-08T22:09:04.860Z,3.00
2017-12-08T22:11:33.220Z,2.40
2017-12-08T22:14:01.809Z,2.00
2017-12-08T22:16:29.443Z,2.07
2017-12-08T22:18:56.947Z,2.73
2017-12-08T22:21:24.466Z,1.50
2017-12-08T22:23:51.974Z,1.93
2017-12-08T22:26:19.486Z,2.40
2017-12-08T22:28:46.991Z,2.60
2017-12-08T22:31:14.509Z,2.73
2017-12-08T22:33:42.008Z,2.20
2017-12-08T22:36:09.522Z,3.40
2017-12-08T22:38:37.018Z,3.20
2017-12-08T22:41:04.560Z,2.30
2017-12-08T22:43:32.831Z,1.73
2017-12-08T22:46:01.107Z,2.10
2017-12-08T22:48:29.374Z,2.17
2017-12-08T22:50:56.893Z,2.43
2017-12-08T22:53:24.399Z,1.60
2017-12-08T22:55:52.683Z,1.87
2017-12-08T22:58:20.954Z,2.40
2017-12-08T23:00:49.284Z,1.90
2017-12-08T23:03:16.793Z,1.97
2017-12-08T23:05:45.073Z,2.47
2017-12-08T23:08:13.354Z,2.70
2017-12-08T23:10:40.864Z,5.03
2017-12-08T23:13:08.379Z,2.87
2017-12-08T23:15:35.878Z,2.23
2017-12-08T23:18:03.404Z,2.00
2017-12-08T23:20:30.906Z,2.63
2017-12-08T23:22:58.422Z,2.00
2017-12-08T23:25:25.928Z,3.07
2017-12-08T23:27:53.453Z,2.00
2017-12-08T23:30:20.951Z,2.10
2017-12-08T23:32:49.242Z,2.00
2017-12-08T23:35:17.511Z,2.07
2017-12-08T23:37:45.795Z,1.90
2017-12-08T23:40:14.073Z,2.20
2017-12-08T23:42:42.402Z,2.57
2017-12-08T23:45:09.903Z,2.60
2017-12-08T23:47:38.186Z,2.83
2017-12-08T23:50:06.450Z,2.47
2017-12-08T23:52:34.730Z,3.30
2017-12-08T23:55:02.994Z,2.90
2017-12-08T23:57:30.519Z,3.17
2017-12-08T23:59:58.786Z,2.83
